Terminal Aerodrome Forecast
Issued by NWS

Home | Current Version | Previous Version | Text Only | Print | Product List | Glossary On
Versions: 1 2 3 4 5 6 7 8 9 10 11 12 13 14 15 16 17 18 19 20 21 22 23 24 25 26 27
299
FTUS41 KPBZ 230933 AAC
TAFAGC
TAF AMD
KAGC 230933Z 2310/2406 32005KT 5SM BR SCT008 BKN015
      TEMPO 2311/2314 BKN008
     FM231500 33005KT P6SM BKN015
     FM231700 33008KT P6SM SCT050=

USA.gov is the U.S. government's official web portal to all federal, state and local government web resources and services.